sensor_id;sensor_type;location;lat;lon;timestamp;pressure;altitude;pressure_sealevel;temperature;humidity
13209;BME280;6669;42.678;23.332;2023-06-14T00:02:09;94234.38;;;16.38;100.00
13209;BME280;6669;42.678;23.332;2023-06-14T00:04:37;94237.59;;;16.40;100.00
13209;BME280;6669;42.678;23.332;2023-06-14T00:07:09;94231.84;;;16.49;100.00
13209;BME280;6669;42.678;23.332;2023-06-14T00:09:40;94238.41;;;16.59;100.00
13209;BME280;6669;42.678;23.332;2023-06-14T00:12:08;94227.09;;;16.58;100.00
13209;BME280;6669;42.678;23.332;2023-06-14T00:14:36;94226.06;;;16.59;100.00
13209;BME280;6669;42.678;23.332;2023-06-14T00:17:05;94222.66;;;16.59;100.00
13209;BME280;6669;42.678;23.332;2023-06-14T00:19:34;94222.56;;;16.65;100.00
13209;BME280;6669;42.678;23.332;2023-06-14T00:22:03;94220.91;;;16.71;100.00
13209;BME280;6669;42.678;23.332;2023-06-14T00:24:33;94212.22;;;16.71;100.00
13209;BME280;6669;42.678;23.332;2023-06-14T00:27:01;94222.22;;;16.80;100.00
13209;BME280;6669;42.678;23.332;2023-06-14T00:29:29;94225.25;;;16.77;100.00
13209;BME280;6669;42.678;23.332;2023-06-14T00:31:57;94220.97;;;16.83;100.00
13209;BME280;6669;42.678;23.332;2023-06-14T00:34:25;94214.47;;;16.86;100.00
13209;BME280;6669;42.678;23.332;2023-06-14T00:36:53;94224.19;;;16.85;100.00
13209;BME280;6669;42.678;23.332;2023-06-14T00:39:21;94216.31;;;16.85;100.00
13209;BME280;6669;42.678;23.332;2023-06-14T00:41:51;94213.69;;;16.85;100.00
13209;BME280;6669;42.678;23.332;2023-06-14T00:44:19;94216.31;;;16.85;100.00
13209;BME280;6669;42.678;23.332;2023-06-14T00:46:48;94204.06;;;16.79;100.00
13209;BME280;6669;42.678;23.332;2023-06-14T00:49:17;94204.50;;;16.76;100.00
13209;BME280;6669;42.678;23.332;2023-06-14T00:51:47;94203.69;;;16.75;100.00
13209;BME280;6669;42.678;23.332;2023-06-14T00:54:15;94208.44;;;16.66;100.00
13209;BME280;6669;42.678;23.332;2023-06-14T00:56:43;94209.59;;;16.71;100.00
13209;BME280;6669;42.678;23.332;2023-06-14T00:59:13;94198.31;;;16.70;100.00
13209;BME280;6669;42.678;23.332;2023-06-14T01:01:42;94206.97;;;16.71;100.00
13209;BME280;6669;42.678;23.332;2023-06-14T01:04:10;94210.63;;;16.70;100.00
13209;BME280;6669;42.678;23.332;2023-06-14T01:06:45;94203.78;;;16.69;100.00
13209;BME280;6669;42.678;23.332;2023-06-14T01:09:21;94197.81;;;16.61;100.00
13209;BME280;6669;42.678;23.332;2023-06-14T01:11:59;94190.34;;;16.58;100.00
13209;BME280;6669;42.678;23.332;2023-06-14T01:14:34;94193.56;;;16.60;100.00
13209;BME280;6669;42.678;23.332;2023-06-14T01:17:03;94203.56;;;16.70;100.00
13209;BME280;6669;42.678;23.332;2023-06-14T01:19:32;94206.59;;;16.67;100.00
13209;BME280;6669;42.678;23.332;2023-06-14T01:22:01;94200.13;;;16.70;100.00
13209;BME280;6669;42.678;23.332;2023-06-14T01:24:31;94195.78;;;16.63;100.00
13209;BME280;6669;42.678;23.332;2023-06-14T01:27:02;94194.59;;;16.59;100.00
13209;BME280;6669;42.678;23.332;2023-06-14T01:29:30;94207.66;;;16.66;100.00
13209;BME280;6669;42.678;23.332;2023-06-14T01:32:00;94200.94;;;16.51;100.00
13209;BME280;6669;42.678;23.332;2023-06-14T01:34:28;94205.91;;;16.60;100.00
13209;BME280;6669;42.678;23.332;2023-06-14T01:36:57;94183.81;;;16.49;100.00
13209;BME280;6669;42.678;23.332;2023-06-14T01:39:28;94210.06;;;16.67;100.00
13209;BME280;6669;42.678;23.332;2023-06-14T01:41:58;94199.19;;;16.64;100.00
13209;BME280;6669;42.678;23.332;2023-06-14T01:44:29;94194.66;;;16.53;100.00
13209;BME280;6669;42.678;23.332;2023-06-14T01:46:58;94199.56;;;16.49;100.00
13209;BME280;6669;42.678;23.332;2023-06-14T01:49:27;94198.31;;;16.33;100.00
13209;BME280;6669;42.678;23.332;2023-06-14T01:51:55;94198.41;;;16.45;100.00
13209;BME280;6669;42.678;23.332;2023-06-14T01:54:23;94191.53;;;16.44;100.00
13209;BME280;6669;42.678;23.332;2023-06-14T01:56:52;94203.50;;;16.40;100.00
13209;BME280;6669;42.678;23.332;2023-06-14T01:59:22;94210.91;;;16.43;100.00
13209;BME280;6669;42.678;23.332;2023-06-14T02:01:50;94205.75;;;16.36;100.00
13209;BME280;6669;42.678;23.332;2023-06-14T02:04:18;94205.22;;;16.27;100.00
13209;BME280;6669;42.678;23.332;2023-06-14T02:06:46;94212.69;;;16.30;100.00
13209;BME280;6669;42.678;23.332;2023-06-14T02:09:14;94213.69;;;16.29;100.00
13209;BME280;6669;42.678;23.332;2023-06-14T02:11:42;94216.34;;;16.23;100.00
13209;BME280;6669;42.678;23.332;2023-06-14T02:14:10;94226.06;;;16.22;100.00
13209;BME280;6669;42.678;23.332;2023-06-14T02:16:40;94206.66;;;16.05;100.00
13209;BME280;6669;42.678;23.332;2023-06-14T02:19:15;94228.09;;;16.20;100.00
13209;BME280;6669;42.678;23.332;2023-06-14T02:21:44;94228.38;;;16.12;100.00
13209;BME280;6669;42.678;23.332;2023-06-14T02:24:12;94226.84;;;16.04;100.00
13209;BME280;6669;42.678;23.332;2023-06-14T02:26:41;94234.31;;;16.00;100.00
13209;BME280;6669;42.678;23.332;2023-06-14T02:29:09;94233.56;;;15.93;100.00
13209;BME280;6669;42.678;23.332;2023-06-14T02:31:40;94218.16;;;15.78;100.00
13209;BME280;6669;42.678;23.332;2023-06-14T02:34:08;94231.63;;;15.82;100.00
13209;BME280;6669;42.678;23.332;2023-06-14T02:36:36;94229.88;;;15.76;100.00
13209;BME280;6669;42.678;23.332;2023-06-14T02:39:08;94229.72;;;15.71;100.00
13209;BME280;6669;42.678;23.332;2023-06-14T02:41:37;94226.09;;;15.65;100.00
13209;BME280;6669;42.678;23.332;2023-06-14T02:44:06;94226.03;;;15.72;100.00
13209;BME280;6669;42.678;23.332;2023-06-14T02:46:34;94222.41;;;15.73;100.00
13209;BME280;6669;42.678;23.332;2023-06-14T02:49:03;94217.19;;;15.73;100.00
13209;BME280;6669;42.678;23.332;2023-06-14T02:51:31;94227.22;;;15.82;100.00
13209;BME280;6669;42.678;23.332;2023-06-14T02:53:59;94227.00;;;15.84;100.00
13209;BME280;6669;42.678;23.332;2023-06-14T02:56:29;94231.22;;;15.85;100.00
13209;BME280;6669;42.678;23.332;2023-06-14T02:58:57;94227.75;;;15.91;100.00
13209;BME280;6669;42.678;23.332;2023-06-14T03:01:25;94237.06;;;15.87;100.00
13209;BME280;6669;42.678;23.332;2023-06-14T03:04:00;94236.63;;;15.90;100.00
13209;BME280;6669;42.678;23.332;2023-06-14T03:06:31;94227.59;;;15.79;100.00
13209;BME280;6669;42.678;23.332;2023-06-14T03:09:00;94238.09;;;15.86;100.00
13209;BME280;6669;42.678;23.332;2023-06-14T03:11:31;94236.50;;;15.78;100.00
13209;BME280;6669;42.678;23.332;2023-06-14T03:14:00;94241.13;;;15.76;100.00
13209;BME280;6669;42.678;23.332;2023-06-14T03:16:30;94230.88;;;15.75;100.00
13209;BME280;6669;42.678;23.332;2023-06-14T03:18:58;94255.03;;;15.77;100.00
13209;BME280;6669;42.678;23.332;2023-06-14T03:21:26;94240.38;;;15.69;100.00
13209;BME280;6669;42.678;23.332;2023-06-14T03:23:56;94245.94;;;15.79;100.00
13209;BME280;6669;42.678;23.332;2023-06-14T03:26:24;94244.94;;;15.80;100.00
13209;BME280;6669;42.678;23.332;2023-06-14T03:28:52;94249.50;;;15.92;100.00
13209;BME280;6669;42.678;23.332;2023-06-14T03:31:20;94250.84;;;16.01;100.00
13209;BME280;6669;42.678;23.332;2023-06-14T03:33:48;94254.50;;;16.00;100.00
13209;BME280;6669;42.678;23.332;2023-06-14T03:36:16;94254.84;;;16.04;100.00
13209;BME280;6669;42.678;23.332;2023-06-14T03:38:45;94261.94;;;16.03;100.00
13209;BME280;6669;42.678;23.332;2023-06-14T03:41:14;94257.47;;;16.04;100.00
13209;BME280;6669;42.678;23.332;2023-06-14T03:43:42;94251.97;;;16.12;100.00
13209;BME280;6669;42.678;23.332;2023-06-14T03:46:10;94258.53;;;16.21;100.00
13209;BME280;6669;42.678;23.332;2023-06-14T03:48:38;94262.16;;;16.20;100.00
13209;BME280;6669;42.678;23.332;2023-06-14T03:51:06;94263.41;;;16.17;100.00
13209;BME280;6669;42.678;23.332;2023-06-14T03:53:34;94264.06;;;16.13;100.00
13209;BME280;6669;42.678;23.332;2023-06-14T03:56:10;94250.19;;;16.06;100.00
13209;BME280;6669;42.678;23.332;2023-06-14T03:58:39;94244.59;;;16.02;100.00
13209;BME280;6669;42.678;23.332;2023-06-14T04:01:07;94262.63;;;16.17;100.00
13209;BME280;6669;42.678;23.332;2023-06-14T04:03:35;94266.09;;;16.11;100.00
13209;BME280;6669;42.678;23.332;2023-06-14T04:06:04;94261.94;;;16.03;100.00
13209;BME280;6669;42.678;23.332;2023-06-14T04:08:32;94257.75;;;15.95;100.00
13209;BME280;6669;42.678;23.332;2023-06-14T04:11:01;94261.38;;;15.94;100.00
13209;BME280;6669;42.678;23.332;2023-06-14T04:13:29;94263.22;;;15.94;100.00
13209;BME280;6669;42.678;23.332;2023-06-14T04:15:59;94258.13;;;15.99;100.00
13209;BME280;6669;42.678;23.332;2023-06-14T04:18:27;94241.44;;;15.93;100.00
13209;BME280;6669;42.678;23.332;2023-06-14T04:20:55;94262.91;;;16.09;100.00
13209;BME280;6669;42.678;23.332;2023-06-14T04:23:23;94263.75;;;16.02;100.00
13209;BME280;6669;42.678;23.332;2023-06-14T04:25:51;94266.75;;;16.06;100.00
13209;BME280;6669;42.678;23.332;2023-06-14T04:28:19;94266.25;;;16.16;100.00
13209;BME280;6669;42.678;23.332;2023-06-14T04:30:53;94269.31;;;16.13;100.00
13209;BME280;6669;42.678;23.332;2023-06-14T04:33:22;94255.28;;;16.00;100.00
13209;BME280;6669;42.678;23.332;2023-06-14T04:35:53;94245.66;;;15.94;100.00
13209;BME280;6669;42.678;23.332;2023-06-14T04:38:22;94268.00;;;16.22;100.00
13209;BME280;6669;42.678;23.332;2023-06-14T04:40:52;94272.41;;;16.28;100.00
13209;BME280;6669;42.678;23.332;2023-06-14T04:43:20;94254.63;;;16.30;100.00
13209;BME280;6669;42.678;23.332;2023-06-14T04:45:54;94260.56;;;16.44;100.00
13209;BME280;6669;42.678;23.332;2023-06-14T04:48:24;94267.59;;;16.44;100.00
13209;BME280;6669;42.678;23.332;2023-06-14T04:50:52;94277.00;;;16.51;100.00
13209;BME280;6669;42.678;23.332;2023-06-14T04:53:20;94284.53;;;16.66;100.00
13209;BME280;6669;42.678;23.332;2023-06-14T04:55:50;94275.81;;;16.73;100.00
13209;BME280;6669;42.678;23.332;2023-06-14T04:58:18;94282.50;;;16.87;100.00
13209;BME280;6669;42.678;23.332;2023-06-14T05:00:46;94272.91;;;16.99;100.00
13209;BME280;6669;42.678;23.332;2023-06-14T05:03:14;94287.03;;;17.17;100.00
13209;BME280;6669;42.678;23.332;2023-06-14T05:05:44;94271.84;;;17.19;100.00
13209;BME280;6669;42.678;23.332;2023-06-14T05:08:12;94292.13;;;17.30;100.00
13209;BME280;6669;42.678;23.332;2023-06-14T05:10:40;94279.56;;;17.32;100.00
13209;BME280;6669;42.678;23.332;2023-06-14T05:13:09;94279.88;;;17.24;100.00
13209;BME280;6669;42.678;23.332;2023-06-14T05:15:38;94294.63;;;17.56;100.00
13209;BME280;6669;42.678;23.332;2023-06-14T05:18:06;94288.59;;;17.37;100.00
13209;BME280;6669;42.678;23.332;2023-06-14T05:20:36;94285.13;;;17.55;100.00
13209;BME280;6669;42.678;23.332;2023-06-14T05:23:06;94286.59;;;17.51;100.00
13209;BME280;6669;42.678;23.332;2023-06-14T05:25:38;94300.25;;;17.41;100.00
13209;BME280;6669;42.678;23.332;2023-06-14T05:28:17;94300.88;;;17.55;100.00
13209;BME280;6669;42.678;23.332;2023-06-14T05:30:45;94296.22;;;17.57;100.00
13209;BME280;6669;42.678;23.332;2023-06-14T05:33:14;94304.22;;;17.50;100.00
13209;BME280;6669;42.678;23.332;2023-06-14T05:35:42;94307.59;;;17.69;100.00
13209;BME280;6669;42.678;23.332;2023-06-14T05:38:11;94322.13;;;17.84;100.00
13209;BME280;6669;42.678;23.332;2023-06-14T05:40:40;94313.34;;;17.90;100.00
13209;BME280;6669;42.678;23.332;2023-06-14T05:43:08;94309.78;;;17.84;100.00
13209;BME280;6669;42.678;23.332;2023-06-14T05:45:37;94311.22;;;17.99;100.00
13209;BME280;6669;42.678;23.332;2023-06-14T05:48:05;94316.03;;;18.02;100.00
13209;BME280;6669;42.678;23.332;2023-06-14T05:50:33;94323.81;;;18.08;100.00
13209;BME280;6669;42.678;23.332;2023-06-14T05:53:01;94327.63;;;18.12;100.00
13209;BME280;6669;42.678;23.332;2023-06-14T05:55:31;94324.06;;;18.19;100.00
13209;BME280;6669;42.678;23.332;2023-06-14T05:57:59;94329.59;;;18.29;100.00
13209;BME280;6669;42.678;23.332;2023-06-14T06:00:27;94325.34;;;18.40;100.00
13209;BME280;6669;42.678;23.332;2023-06-14T06:02:55;94323.88;;;18.56;100.00
13209;BME280;6669;42.678;23.332;2023-06-14T06:05:24;94311.16;;;18.53;100.00
13209;BME280;6669;42.678;23.332;2023-06-14T06:07:53;94334.06;;;18.52;100.00
13209;BME280;6669;42.678;23.332;2023-06-14T06:10:21;94326.16;;;18.64;100.00
13209;BME280;6669;42.678;23.332;2023-06-14T06:12:50;94327.53;;;18.55;100.00
13209;BME280;6669;42.678;23.332;2023-06-14T06:15:21;94340.00;;;18.71;100.00
13209;BME280;6669;42.678;23.332;2023-06-14T06:17:49;94336.13;;;18.74;100.00
13209;BME280;6669;42.678;23.332;2023-06-14T06:20:22;94338.16;;;18.72;100.00
13209;BME280;6669;42.678;23.332;2023-06-14T06:22:56;94341.28;;;18.69;100.00
13209;BME280;6669;42.678;23.332;2023-06-14T06:25:26;94340.34;;;18.75;100.00
13209;BME280;6669;42.678;23.332;2023-06-14T06:27:56;94343.88;;;18.81;100.00
13209;BME280;6669;42.678;23.332;2023-06-14T06:30:24;94338.06;;;18.67;100.00
13209;BME280;6669;42.678;23.332;2023-06-14T06:32:53;94345.84;;;18.61;100.00
13209;BME280;6669;42.678;23.332;2023-06-14T06:35:22;94346.66;;;18.62;100.00
13209;BME280;6669;42.678;23.332;2023-06-14T06:37:50;94348.22;;;18.63;100.00
13209;BME280;6669;42.678;23.332;2023-06-14T06:40:18;94342.06;;;18.57;100.00
13209;BME280;6669;42.678;23.332;2023-06-14T06:42:47;94345.59;;;18.63;100.00
13209;BME280;6669;42.678;23.332;2023-06-14T06:45:16;94335.75;;;18.35;100.00
13209;BME280;6669;42.678;23.332;2023-06-14T06:47:45;94338.06;;;18.43;100.00
13209;BME280;6669;42.678;23.332;2023-06-14T06:50:13;94351.09;;;18.61;100.00
13209;BME280;6669;42.678;23.332;2023-06-14T06:52:42;94343.56;;;18.65;100.00
13209;BME280;6669;42.678;23.332;2023-06-14T06:55:12;94346.41;;;18.75;100.00
13209;BME280;6669;42.678;23.332;2023-06-14T06:57:41;94357.63;;;18.71;100.00
13209;BME280;6669;42.678;23.332;2023-06-14T07:00:10;94350.31;;;18.73;100.00
13209;BME280;6669;42.678;23.332;2023-06-14T07:02:42;94331.41;;;18.64;100.00
13209;BME280;6669;42.678;23.332;2023-06-14T07:05:11;94337.59;;;18.82;100.00
13209;BME280;6669;42.678;23.332;2023-06-14T07:07:47;94354.34;;;18.99;100.00
13209;BME280;6669;42.678;23.332;2023-06-14T07:10:15;94343.75;;;18.87;100.00
13209;BME280;6669;42.678;23.332;2023-06-14T07:12:44;94348.13;;;18.93;100.00
13209;BME280;6669;42.678;23.332;2023-06-14T07:15:12;94352.25;;;19.13;100.00
13209;BME280;6669;42.678;23.332;2023-06-14T07:17:43;94344.34;;;19.13;100.00
13209;BME280;6669;42.678;23.332;2023-06-14T07:20:12;94351.00;;;19.04;100.00
13209;BME280;6669;42.678;23.332;2023-06-14T07:22:42;94345.72;;;19.16;100.00
13209;BME280;6669;42.678;23.332;2023-06-14T07:25:11;94335.19;;;19.16;100.00
13209;BME280;6669;42.678;23.332;2023-06-14T07:27:42;94349.47;;;19.60;100.00
13209;BME280;6669;42.678;23.332;2023-06-14T07:30:11;94348.56;;;19.67;100.00
13209;BME280;6669;42.678;23.332;2023-06-14T07:32:40;94332.53;;;19.56;100.00
13209;BME280;6669;42.678;23.332;2023-06-14T07:35:09;94352.50;;;19.81;100.00
13209;BME280;6669;42.678;23.332;2023-06-14T07:37:38;94354.81;;;20.06;100.00
13209;BME280;6669;42.678;23.332;2023-06-14T07:40:07;94350.56;;;20.05;100.00
13209;BME280;6669;42.678;23.332;2023-06-14T07:42:37;94345.06;;;20.07;100.00
13209;BME280;6669;42.678;23.332;2023-06-14T07:45:06;94344.88;;;19.97;100.00
13209;BME280;6669;42.678;23.332;2023-06-14T07:47:34;94335.69;;;19.70;100.00
13209;BME280;6669;42.678;23.332;2023-06-14T07:50:03;94362.72;;;19.89;100.00
13209;BME280;6669;42.678;23.332;2023-06-14T07:52:33;94352.69;;;19.91;100.00
13209;BME280;6669;42.678;23.332;2023-06-14T07:55:01;94362.19;;;20.21;100.00
13209;BME280;6669;42.678;23.332;2023-06-14T07:57:30;94362.81;;;20.29;100.00
13209;BME280;6669;42.678;23.332;2023-06-14T07:59:58;94358.59;;;20.28;100.00
13209;BME280;6669;42.678;23.332;2023-06-14T08:02:26;94367.16;;;20.69;100.00
13209;BME280;6669;42.678;23.332;2023-06-14T08:04:54;94364.16;;;20.77;100.00
13209;BME280;6669;42.678;23.332;2023-06-14T08:07:24;94373.91;;;20.94;100.00
13209;BME280;6669;42.678;23.332;2023-06-14T08:09:53;94377.97;;;21.01;100.00
13209;BME280;6669;42.678;23.332;2023-06-14T08:12:22;94389.59;;;21.22;100.00
13209;BME280;6669;42.678;23.332;2023-06-14T08:14:50;94390.88;;;21.20;100.00
13209;BME280;6669;42.678;23.332;2023-06-14T08:17:38;94390.09;;;21.19;100.00
13209;BME280;6669;42.678;23.332;2023-06-14T08:20:07;94404.31;;;21.35;100.00
13209;BME280;6669;42.678;23.332;2023-06-14T08:22:35;94381.19;;;21.70;100.00
13209;BME280;6669;42.678;23.332;2023-06-14T08:25:05;94388.41;;;21.75;100.00
13209;BME280;6669;42.678;23.332;2023-06-14T08:27:34;94381.25;;;21.97;100.00
13209;BME280;6669;42.678;23.332;2023-06-14T08:30:03;94389.84;;;22.10;100.00
13209;BME280;6669;42.678;23.332;2023-06-14T08:32:31;94390.72;;;22.20;100.00
13209;BME280;6669;42.678;23.332;2023-06-14T08:34:59;94401.81;;;22.17;100.00
13209;BME280;6669;42.678;23.332;2023-06-14T08:37:45;94404.81;;;22.26;100.00
13209;BME280;6669;42.678;23.332;2023-06-14T08:40:20;94394.38;;;22.14;100.00
13209;BME280;6669;42.678;23.332;2023-06-14T08:42:51;94392.84;;;22.18;100.00
13209;BME280;6669;42.678;23.332;2023-06-14T08:45:19;94396.66;;;22.05;100.00
13209;BME280;6669;42.678;23.332;2023-06-14T08:47:52;94387.16;;;22.04;100.00
13209;BME280;6669;42.678;23.332;2023-06-14T08:50:26;94389.13;;;21.92;100.00
13209;BME280;6669;42.678;23.332;2023-06-14T08:52:59;94370.72;;;22.02;100.00
13209;BME280;6669;42.678;23.332;2023-06-14T08:55:31;94378.50;;;22.14;100.00
13209;BME280;6669;42.678;23.332;2023-06-14T08:58:03;94385.03;;;22.07;100.00
13209;BME280;6669;42.678;23.332;2023-06-14T09:00:32;94389.94;;;22.20;100.00
13209;BME280;6669;42.678;23.332;2023-06-14T09:03:01;94388.31;;;22.46;100.00
13209;BME280;6669;42.678;23.332;2023-06-14T09:05:30;94380.38;;;22.46;100.00
13209;BME280;6669;42.678;23.332;2023-06-14T09:07:58;94379.03;;;22.76;100.00
13209;BME280;6669;42.678;23.332;2023-06-14T09:10:33;94379.69;;;22.94;100.00
13209;BME280;6669;42.678;23.332;2023-06-14T09:13:05;94389.38;;;23.15;100.00
13209;BME280;6669;42.678;23.332;2023-06-14T09:15:34;94389.63;;;23.14;100.00
13209;BME280;6669;42.678;23.332;2023-06-14T09:18:03;94382.09;;;23.00;100.00
13209;BME280;6669;42.678;23.332;2023-06-14T09:20:33;94380.16;;;22.85;100.00
13209;BME280;6669;42.678;23.332;2023-06-14T09:23:04;94380.13;;;22.80;100.00
13209;BME280;6669;42.678;23.332;2023-06-14T09:25:43;94369.94;;;22.62;100.00
13209;BME280;6669;42.678;23.332;2023-06-14T09:28:12;94369.47;;;22.75;100.00
13209;BME280;6669;42.678;23.332;2023-06-14T09:30:40;94379.13;;;22.92;100.00
13209;BME280;6669;42.678;23.332;2023-06-14T09:33:08;94356.81;;;22.82;100.00
13209;BME280;6669;42.678;23.332;2023-06-14T09:35:36;94363.28;;;23.02;100.00
13209;BME280;6669;42.678;23.332;2023-06-14T09:38:04;94366.88;;;23.23;100.00
13209;BME280;6669;42.678;23.332;2023-06-14T09:40:35;94373.81;;;23.29;100.00
13209;BME280;6669;42.678;23.332;2023-06-14T09:43:07;94375.25;;;23.58;100.00
13209;BME280;6669;42.678;23.332;2023-06-14T09:45:39;94375.56;;;23.66;100.00
13209;BME280;6669;42.678;23.332;2023-06-14T09:48:07;94355.16;;;23.77;100.00
13209;BME280;6669;42.678;23.332;2023-06-14T09:50:36;94351.44;;;23.73;100.00
13209;BME280;6669;42.678;23.332;2023-06-14T09:53:06;94354.88;;;23.69;100.00
13209;BME280;6669;42.678;23.332;2023-06-14T09:55:36;94351.13;;;23.64;100.00
13209;BME280;6669;42.678;23.332;2023-06-14T09:58:07;94356.41;;;23.54;100.00
13209;BME280;6669;42.678;23.332;2023-06-14T10:00:36;94366.72;;;23.45;100.00
13209;BME280;6669;42.678;23.332;2023-06-14T10:03:11;94361.94;;;23.42;100.00
13209;BME280;6669;42.678;23.332;2023-06-14T10:05:43;94350.00;;;23.40;100.00
13209;BME280;6669;42.678;23.332;2023-06-14T10:08:14;94346.59;;;23.49;100.00
13209;BME280;6669;42.678;23.332;2023-06-14T10:10:44;94341.88;;;23.72;100.00
13209;BME280;6669;42.678;23.332;2023-06-14T10:13:21;94336.84;;;23.81;100.00
13209;BME280;6669;42.678;23.332;2023-06-14T10:15:55;94344.09;;;24.01;100.00
13209;BME280;6669;42.678;23.332;2023-06-14T10:18:32;94331.22;;;23.67;100.00
13209;BME280;6669;42.678;23.332;2023-06-14T10:21:11;94340.53;;;23.75;100.00
13209;BME280;6669;42.678;23.332;2023-06-14T10:23:42;94336.56;;;23.82;100.00
13209;BME280;6669;42.678;23.332;2023-06-14T10:26:18;94329.94;;;23.80;100.00
13209;BME280;6669;42.678;23.332;2023-06-14T10:28:59;94328.44;;;24.15;100.00
13209;BME280;6669;42.678;23.332;2023-06-14T10:31:40;94329.75;;;24.07;100.00
13209;BME280;6669;42.678;23.332;2023-06-14T10:34:10;94326.81;;;23.93;100.00
13209;BME280;6669;42.678;23.332;2023-06-14T10:36:42;94333.47;;;23.91;100.00
13209;BME280;6669;42.678;23.332;2023-06-14T10:39:15;94316.41;;;23.76;100.00
13209;BME280;6669;42.678;23.332;2023-06-14T10:41:51;94330.25;;;23.94;100.00
13209;BME280;6669;42.678;23.332;2023-06-14T10:44:46;94327.63;;;24.04;100.00
13209;BME280;6669;42.678;23.332;2023-06-14T10:47:23;94308.25;;;23.98;100.00
13209;BME280;6669;42.678;23.332;2023-06-14T10:49:53;94325.50;;;24.37;100.00
13209;BME280;6669;42.678;23.332;2023-06-14T10:52:23;94325.00;;;24.14;100.00
13209;BME280;6669;42.678;23.332;2023-06-14T10:55:16;94320.75;;;24.13;100.00
13209;BME280;6669;42.678;23.332;2023-06-14T10:57:47;94316.25;;;24.50;100.00
13209;BME280;6669;42.678;23.332;2023-06-14T11:00:23;94289.41;;;24.67;100.00
13209;BME280;6669;42.678;23.332;2023-06-14T11:05:58;94304.69;;;25.17;100.00
13209;BME280;6669;42.678;23.332;2023-06-14T11:11:15;94303.19;;;26.00;100.00
13209;BME280;6669;42.678;23.332;2023-06-14T11:13:59;94294.06;;;26.17;100.00
13209;BME280;6669;42.678;23.332;2023-06-14T11:16:30;94304.78;;;26.46;100.00
13209;BME280;6669;42.678;23.332;2023-06-14T11:19:00;94286.00;;;26.27;100.00
13209;BME280;6669;42.678;23.332;2023-06-14T11:21:31;94297.72;;;26.90;100.00
13209;BME280;6669;42.678;23.332;2023-06-14T11:24:00;94269.31;;;26.75;100.00
13209;BME280;6669;42.678;23.332;2023-06-14T11:26:29;94281.66;;;27.19;100.00
13209;BME280;6669;42.678;23.332;2023-06-14T11:28:58;94279.91;;;27.72;100.00
13209;BME280;6669;42.678;23.332;2023-06-14T11:31:29;94286.16;;;27.86;100.00
13209;BME280;6669;42.678;23.332;2023-06-14T11:33:59;94283.59;;;28.33;100.00
13209;BME280;6669;42.678;23.332;2023-06-14T11:36:29;94274.38;;;27.68;100.00
13209;BME280;6669;42.678;23.332;2023-06-14T11:38:58;94275.16;;;27.69;100.00
13209;BME280;6669;42.678;23.332;2023-06-14T11:41:38;94273.00;;;27.71;100.00
13209;BME280;6669;42.678;23.332;2023-06-14T11:44:07;94273.16;;;28.32;100.00
13209;BME280;6669;42.678;23.332;2023-06-14T11:46:37;94280.66;;;28.49;100.00
13209;BME280;6669;42.678;23.332;2023-06-14T11:49:06;94277.44;;;28.33;100.00
13209;BME280;6669;42.678;23.332;2023-06-14T11:51:36;94260.81;;;27.84;100.00
13209;BME280;6669;42.678;23.332;2023-06-14T11:54:06;94261.66;;;27.17;100.00
13209;BME280;6669;42.678;23.332;2023-06-14T11:56:36;94263.72;;;27.01;100.00
13209;BME280;6669;42.678;23.332;2023-06-14T11:59:05;94247.00;;;26.66;100.00
13209;BME280;6669;42.678;23.332;2023-06-14T12:01:37;94231.75;;;27.44;100.00
13209;BME280;6669;42.678;23.332;2023-06-14T12:04:06;94245.97;;;28.30;100.00
13209;BME280;6669;42.678;23.332;2023-06-14T12:06:35;94241.66;;;28.15;98.94
13209;BME280;6669;42.678;23.332;2023-06-14T12:09:08;94239.41;;;28.22;97.71
13209;BME280;6669;42.678;23.332;2023-06-14T12:11:40;94242.16;;;27.98;95.56
13209;BME280;6669;42.678;23.332;2023-06-14T12:14:09;94235.63;;;27.71;100.00
13209;BME280;6669;42.678;23.332;2023-06-14T12:16:40;94228.00;;;27.21;100.00
13209;BME280;6669;42.678;23.332;2023-06-14T12:19:12;94230.56;;;27.69;98.86
13209;BME280;6669;42.678;23.332;2023-06-14T12:21:41;94227.94;;;27.83;100.00
13209;BME280;6669;42.678;23.332;2023-06-14T12:24:18;94223.91;;;27.86;100.00
13209;BME280;6669;42.678;23.332;2023-06-14T12:26:46;94224.25;;;27.98;100.00
13209;BME280;6669;42.678;23.332;2023-06-14T12:29:14;94217.50;;;27.49;100.00
13209;BME280;6669;42.678;23.332;2023-06-14T12:31:44;94217.72;;;27.52;100.00
13209;BME280;6669;42.678;23.332;2023-06-14T12:34:12;94223.78;;;27.15;100.00
13209;BME280;6669;42.678;23.332;2023-06-14T12:36:41;94197.44;;;26.89;100.00
13209;BME280;6669;42.678;23.332;2023-06-14T12:39:13;94207.22;;;26.74;100.00
13209;BME280;6669;42.678;23.332;2023-06-14T12:41:41;94196.13;;;26.62;100.00
13209;BME280;6669;42.678;23.332;2023-06-14T12:44:10;94209.44;;;26.62;100.00
13209;BME280;6669;42.678;23.332;2023-06-14T12:46:38;94213.66;;;26.68;100.00
13209;BME280;6669;42.678;23.332;2023-06-14T12:49:11;94201.00;;;26.55;100.00
13209;BME280;6669;42.678;23.332;2023-06-14T12:51:39;94190.44;;;26.44;100.00
13209;BME280;6669;42.678;23.332;2023-06-14T12:54:07;94195.88;;;26.34;100.00
13209;BME280;6669;42.678;23.332;2023-06-14T12:56:35;94196.44;;;26.31;100.00
13209;BME280;6669;42.678;23.332;2023-06-14T12:59:04;94188.13;;;26.08;100.00
13209;BME280;6669;42.678;23.332;2023-06-14T13:01:33;94182.88;;;25.98;100.00
13209;BME280;6669;42.678;23.332;2023-06-14T13:04:01;94197.81;;;25.94;100.00
13209;BME280;6669;42.678;23.332;2023-06-14T13:06:31;94199.91;;;25.97;100.00
13209;BME280;6669;42.678;23.332;2023-06-14T13:09:00;94203.34;;;25.98;100.00
13209;BME280;6669;42.678;23.332;2023-06-14T13:11:28;94181.00;;;25.99;100.00